createdAt,value
2022-09-14T00:01:25.919Z,97555.19
2022-09-14T00:03:56.011Z,97561.69
2022-09-14T00:06:23.243Z,97560.22
2022-09-14T00:08:52.676Z,97560.41
2022-09-14T00:11:20.878Z,97548.66
2022-09-14T00:13:48.396Z,97552.25
2022-09-14T00:16:19.843Z,97552.59
2022-09-14T00:18:54.727Z,97549.38
2022-09-14T00:21:22.689Z,97550.03
2022-09-14T00:23:49.964Z,97555.41
2022-09-14T00:26:20.201Z,97559.13
2022-09-14T00:28:53.416Z,97561.75
2022-09-14T00:31:21.447Z,97555.16
2022-09-14T00:33:50.499Z,97559.81
2022-09-14T00:36:26.710Z,97564.56
2022-09-14T00:38:58.206Z,97554.63
2022-09-14T00:41:29.035Z,97557.50
2022-09-14T00:44:11.117Z,97562.41
2022-09-14T00:46:40.812Z,97551.72
2022-09-14T00:49:19.477Z,97558.69
2022-09-14T00:51:53.229Z,97568.13
2022-09-14T00:54:20.545Z,97565.94
2022-09-14T00:56:49.129Z,97570.66
2022-09-14T00:59:22.693Z,97550.19
2022-09-14T01:01:50.614Z,97552.63
2022-09-14T01:04:17.720Z,97554.91
2022-09-14T01:07:29.007Z,97553.81
2022-09-14T01:10:32.927Z,97559.19
2022-09-14T01:13:12.124Z,97561.38
2022-09-14T01:16:11.834Z,97562.25
2022-09-14T01:18:55.703Z,97555.72
2022-09-14T01:21:38.376Z,97547.16
2022-09-14T01:24:08.531Z,97546.75
2022-09-14T01:26:37.984Z,97548.19
2022-09-14T01:29:12.163Z,97555.03
2022-09-14T01:32:01.412Z,97547.56
2022-09-14T01:34:33.129Z,97550.75
2022-09-14T01:37:06.397Z,97556.09
2022-09-14T01:39:35.953Z,97554.56
2022-09-14T01:42:03.992Z,97556.41
2022-09-14T01:44:36.115Z,97553.88
2022-09-14T01:47:13.366Z,97552.06
2022-09-14T01:49:55.902Z,97548.75
2022-09-14T01:52:31.005Z,97554.00
2022-09-14T01:55:04.502Z,97542.09
2022-09-14T01:57:37.138Z,97545.56
2022-09-14T02:00:11.234Z,97540.03
2022-09-14T02:02:47.267Z,97544.03
2022-09-14T02:05:28.879Z,97549.38
2022-09-14T02:07:56.672Z,97550.44
2022-09-14T02:10:24.609Z,97544.78
2022-09-14T02:12:53.680Z,97547.09
2022-09-14T02:15:21.672Z,97550.03
2022-09-14T02:17:49.533Z,97551.31
2022-09-14T02:20:25.791Z,97558.91
2022-09-14T02:22:53.163Z,97552.72
2022-09-14T02:25:21.007Z,97546.59
2022-09-14T02:27:48.524Z,97546.03
2022-09-14T02:30:17.327Z,97554.28
2022-09-14T02:32:52.875Z,97545.38
2022-09-14T02:35:41.755Z,97543.44
2022-09-14T02:38:20.437Z,97542.75
2022-09-14T02:41:13.022Z,97541.41
2022-09-14T02:43:51.167Z,97539.22
2022-09-14T02:46:45.210Z,97534.47
2022-09-14T02:49:27.284Z,97534.66
2022-09-14T02:52:06.220Z,97530.41
2022-09-14T02:54:41.284Z,97534.19
2022-09-14T02:57:08.263Z,97536.84
2022-09-14T02:59:35.270Z,97540.09
2022-09-14T03:02:02.215Z,97536.44
2022-09-14T03:04:29.218Z,97535.56
2022-09-14T03:06:56.973Z,97543.09
2022-09-14T03:09:23.905Z,97535.84
2022-09-14T03:11:50.903Z,97538.06
2022-09-14T03:14:17.796Z,97534.13
2022-09-14T03:16:44.806Z,97530.00
2022-09-14T03:19:12.501Z,97535.34
2022-09-14T03:21:40.019Z,97537.56
2022-09-14T03:24:07.580Z,97535.59
2022-09-14T03:26:37.085Z,97544.66
2022-09-14T03:29:05.629Z,97541.47
2022-09-14T03:31:33.645Z,97543.47
2022-09-14T03:34:02.213Z,97544.78
2022-09-14T03:36:31.919Z,97551.84
2022-09-14T03:39:02.014Z,97561.84
2022-09-14T03:41:29.216Z,97561.38
2022-09-14T03:43:56.257Z,97560.44
2022-09-14T03:46:25.565Z,97567.09
2022-09-14T03:48:52.667Z,97569.34
2022-09-14T03:51:19.734Z,97569.44
2022-09-14T03:53:46.848Z,97572.13
2022-09-14T03:56:19.491Z,97571.97
2022-09-14T03:58:47.660Z,97579.75
2022-09-14T04:01:18.187Z,97577.25
2022-09-14T04:03:45.959Z,97585.09
2022-09-14T04:06:13.340Z,97577.72
2022-09-14T04:08:41.556Z,97577.00
2022-09-14T04:11:20.993Z,97570.34
2022-09-14T04:13:48.538Z,97583.94
2022-09-14T04:16:16.760Z,97583.28
2022-09-14T04:18:44.732Z,97586.91
2022-09-14T04:21:15.080Z,97591.13
2022-09-14T04:24:10.078Z,97592.09
2022-09-14T04:26:30.516Z,97585.44
2022-09-14T04:28:58.478Z,97590.50
2022-09-14T04:31:25.761Z,97588.94
2022-09-14T04:33:57.250Z,97593.09
2022-09-14T04:36:31.380Z,97603.53
2022-09-14T04:39:01.212Z,97599.72
2022-09-14T04:41:29.613Z,97589.25
2022-09-14T04:43:57.341Z,97596.41
2022-09-14T04:46:31.201Z,97604.16
2022-09-14T04:48:58.984Z,97610.16
2022-09-14T04:51:28.531Z,97611.38
2022-09-14T04:53:56.970Z,97610.31
2022-09-14T04:56:25.031Z,97611.88
2022-09-14T04:58:58.599Z,97610.00
2022-09-14T05:01:29.190Z,97617.13
2022-09-14T05:03:56.999Z,97609.09
2022-09-14T05:06:28.272Z,97604.16
2022-09-14T05:08:56.001Z,97617.50
2022-09-14T05:11:25.407Z,97616.56
2022-09-14T05:13:52.410Z,97612.94
2022-09-14T05:16:26.599Z,97615.25
2022-09-14T05:18:58.957Z,97608.31
2022-09-14T05:21:25.919Z,97613.47
2022-09-14T05:24:00.528Z,97622.22
2022-09-14T05:26:29.548Z,97618.84
2022-09-14T05:29:00.147Z,97618.84
2022-09-14T05:31:29.002Z,97620.56
2022-09-14T05:33:56.202Z,97618.41
2022-09-14T05:36:23.693Z,97619.00
2022-09-14T05:38:51.004Z,97620.09
2022-09-14T05:41:18.418Z,97614.69
2022-09-14T05:43:45.679Z,97628.72
2022-09-14T05:46:15.163Z,97623.91
2022-09-14T05:48:42.696Z,97628.75
2022-09-14T05:51:17.509Z,97628.78
2022-09-14T05:53:51.675Z,97636.06
2022-09-14T05:56:20.137Z,97636.06
2022-09-14T05:58:47.646Z,97643.59
2022-09-14T06:01:23.309Z,97641.69
2022-09-14T06:04:36.592Z,97641.09
2022-09-14T06:07:17.886Z,97647.31
2022-09-14T06:09:45.597Z,97644.59
2022-09-14T06:12:14.698Z,97643.72
2022-09-14T06:14:41.691Z,97653.69
2022-09-14T06:17:08.625Z,97643.56
2022-09-14T06:19:35.544Z,97652.72
2022-09-14T06:22:02.480Z,97658.56
2022-09-14T06:24:29.626Z,97658.28
2022-09-14T06:26:56.659Z,97654.03
2022-09-14T06:29:23.623Z,97646.41
2022-09-14T06:31:50.517Z,97660.66
2022-09-14T06:34:18.063Z,97662.66
2022-09-14T06:36:45.576Z,97664.66
2022-09-14T06:39:12.629Z,97662.56
2022-09-14T06:41:39.572Z,97674.66
2022-09-14T06:44:16.595Z,97668.81
2022-09-14T06:46:47.396Z,97673.09
2022-09-14T06:49:20.923Z,97677.31
2022-09-14T06:51:48.119Z,97676.69
2022-09-14T06:54:16.489Z,97674.97
2022-09-14T06:56:45.065Z,97679.56
2022-09-14T06:59:13.962Z,97681.16
2022-09-14T07:01:41.421Z,97679.22
2022-09-14T07:04:08.749Z,97681.38
2022-09-14T07:06:41.886Z,97680.44
2022-09-14T07:09:08.898Z,97683.53
2022-09-14T07:11:36.067Z,97678.00
2022-09-14T07:14:03.046Z,97684.28
2022-09-14T07:16:31.970Z,97683.03
2022-09-14T07:19:04.636Z,97681.75
2022-09-14T07:21:33.161Z,97685.56
2022-09-14T07:24:00.898Z,97684.19
2022-09-14T07:26:30.683Z,97683.38
2022-09-14T07:29:03.723Z,97682.09
2022-09-14T07:31:36.015Z,97686.28
2022-09-14T07:34:04.669Z,97685.75
2022-09-14T07:36:34.946Z,97684.94
2022-09-14T07:39:05.122Z,97683.13
2022-09-14T07:41:34.343Z,97689.97
2022-09-14T07:44:03.065Z,97689.50
2022-09-14T07:46:34.884Z,97688.03
2022-09-14T07:49:02.674Z,97691.78
2022-09-14T07:51:31.024Z,97682.19
2022-09-14T07:54:00.126Z,97688.31
2022-09-14T07:56:27.302Z,97694.69
2022-09-14T07:59:11.391Z,97689.72
2022-09-14T08:01:44.351Z,97678.47
2022-09-14T08:04:11.197Z,97683.13
2022-09-14T08:06:40.623Z,97681.78
2022-09-14T08:09:11.173Z,97678.28
2022-09-14T08:11:38.784Z,97675.34
2022-09-14T08:14:11.949Z,97676.06
2022-09-14T08:16:40.839Z,97683.59
2022-09-14T08:19:19.837Z,97682.78
2022-09-14T08:21:47.909Z,97683.44
2022-09-14T08:24:17.985Z,97688.72
2022-09-14T08:26:45.629Z,97689.34
2022-09-14T08:29:14.101Z,97678.53
2022-09-14T08:31:41.229Z,97679.22
2022-09-14T08:34:08.795Z,97679.47
2022-09-14T08:36:38.265Z,97677.66
2022-09-14T08:39:09.184Z,97691.16
2022-09-14T08:41:44.696Z,97687.56
2022-09-14T08:44:17.438Z,97674.81
2022-09-14T08:47:03.096Z,97674.53
2022-09-14T08:49:36.241Z,97673.19
2022-09-14T08:52:03.918Z,97665.75
2022-09-14T08:54:37.331Z,97671.25
2022-09-14T08:57:20.121Z,97666.72
2022-09-14T09:00:00.422Z,97668.41
2022-09-14T09:02:52.934Z,97670.22
2022-09-14T09:06:07.450Z,97666.66
2022-09-14T09:08:53.977Z,97662.94
2022-09-14T09:11:24.421Z,97664.13
2022-09-14T09:13:53.361Z,97647.78
2022-09-14T09:16:24.950Z,97667.75
2022-09-14T09:18:57.855Z,97662.06
2022-09-14T09:21:31.833Z,97664.94
2022-09-14T09:24:28.378Z,97670.13
2022-09-14T09:26:55.226Z,97661.44
2022-09-14T09:29:22.214Z,97662.78
2022-09-14T09:32:26.020Z,97646.25
2022-09-14T09:35:01.886Z,97642.50
2022-09-14T09:37:52.338Z,97645.44
2022-09-14T09:40:25.786Z,97648.63
2022-09-14T09:43:04.298Z,97648.03
2022-09-14T10:17:33.990Z,97640.78
2022-09-14T10:20:01.122Z,97645.75
2022-09-14T10:22:31.325Z,97647.78
2022-09-14T10:25:00.121Z,97646.84
2022-09-14T10:27:39.850Z,97651.66
2022-09-14T10:30:14.087Z,97639.59
2022-09-14T10:32:45.723Z,97639.31
2022-09-14T10:35:15.215Z,97634.28
2022-09-14T10:38:06.892Z,97628.97
2022-09-14T10:40:38.472Z,97631.38
2022-09-14T10:43:30.578Z,97637.47
2022-09-14T10:46:03.536Z,97635.59
2022-09-14T10:48:44.609Z,97640.75
2022-09-14T10:51:30.384Z,97626.25
2022-09-14T10:54:21.950Z,97611.00
2022-09-14T10:57:04.302Z,97624.66
2022-09-14T10:59:55.655Z,97631.38
2022-09-14T11:02:49.395Z,97625.69
2022-09-14T11:05:24.330Z,97626.13
2022-09-14T11:07:54.221Z,97614.53
2022-09-14T11:10:40.037Z,97610.66
2022-09-14T11:13:24.366Z,97614.78
2022-09-14T11:15:51.266Z,97623.84
2022-09-14T11:18:53.366Z,97616.56
2022-09-14T11:21:22.909Z,97618.88
2022-09-14T11:24:06.623Z,97620.47
2022-09-14T11:27:03.368Z,97611.56
2022-09-14T11:29:36.226Z,97613.28
2022-09-14T11:32:37.356Z,97610.97
2022-09-14T11:35:13.347Z,97612.03
2022-09-14T11:37:58.442Z,97615.94
2022-09-14T11:40:29.425Z,97604.56
2022-09-14T11:43:14.051Z,97606.88
2022-09-14T11:46:06.560Z,97609.91
2022-09-14T11:48:42.841Z,97598.91
2022-09-14T11:51:24.276Z,97594.06
2022-09-14T11:53:51.812Z,97586.25
2022-09-14T11:56:26.494Z,97578.16
2022-09-14T11:58:56.368Z,97573.34
2022-09-14T12:01:31.714Z,97579.94
2022-09-14T12:04:01.699Z,97577.00
2022-09-14T12:06:31.594Z,97577.22
2022-09-14T12:09:17.307Z,97564.97
2022-09-14T12:11:45.752Z,97569.25
2022-09-14T12:14:15.105Z,97551.38
2022-09-14T12:17:22.768Z,97555.50
2022-09-14T12:19:58.771Z,97545.22
2022-09-14T12:22:38.119Z,97537.94
2022-09-14T12:25:20.288Z,97539.97
2022-09-14T12:27:49.125Z,97540.72
2022-09-14T12:30:39.913Z,97538.97
2022-09-14T12:33:33.555Z,97540.75
2022-09-14T12:36:01.405Z,97530.16
2022-09-14T12:38:31.235Z,97530.94
2022-09-14T12:41:03.164Z,97532.47
2022-09-14T12:43:33.247Z,97525.72
2022-09-14T12:46:20.449Z,97533.28
2022-09-14T12:48:47.447Z,97524.09
2022-09-14T12:51:32.810Z,97531.28
2022-09-14T12:54:08.502Z,97522.22
2022-09-14T12:56:43.871Z,97519.88
2022-09-14T12:59:36.218Z,97520.16
2022-09-14T13:02:17.974Z,97514.94
2022-09-14T13:04:47.945Z,97505.66
2022-09-14T13:07:17.868Z,97516.09
2022-09-14T13:10:04.588Z,97522.22
2022-09-14T13:12:34.155Z,97515.25
2022-09-14T13:15:06.339Z,97520.41
2022-09-14T13:17:33.430Z,97502.91
2022-09-14T13:20:05.855Z,97516.50
2022-09-14T13:22:33.981Z,97510.53
2022-09-14T13:25:04.180Z,97509.78
2022-09-14T13:27:36.524Z,97501.56
2022-09-14T13:30:18.318Z,97513.28
2022-09-14T13:32:51.500Z,97510.53
2022-09-14T13:35:18.344Z,97513.66
2022-09-14T13:37:48.286Z,97502.91
2022-09-14T13:40:15.582Z,97509.03
2022-09-14T13:42:43.157Z,97514.69
2022-09-14T13:45:13.161Z,97518.19
2022-09-14T13:47:40.466Z,97511.44
2022-09-14T13:50:08.163Z,97507.50
2022-09-14T13:53:00.628Z,97505.72
2022-09-14T13:55:43.985Z,97509.91
2022-09-14T13:58:21.649Z,97511.38
2022-09-14T14:01:06.446Z,97504.69
2022-09-14T14:03:48.536Z,97502.63
2022-09-14T14:06:32.785Z,97507.72
2022-09-14T14:09:04.956Z,97499.22
2022-09-14T14:11:53.012Z,97503.88
2022-09-14T14:14:28.810Z,97500.03
2022-09-14T14:17:20.404Z,97513.03
2022-09-14T14:19:48.716Z,97513.84
2022-09-14T14:22:15.668Z,97513.19
2022-09-14T14:25:11.762Z,97516.91
2022-09-14T14:27:41.639Z,97519.47
2022-09-14T14:30:17.835Z,97525.88
2022-09-14T14:32:49.364Z,97521.06
2022-09-14T14:35:20.087Z,97517.22
2022-09-14T14:37:47.977Z,97526.03
2022-09-14T14:40:16.616Z,97523.81
2022-09-14T14:42:44.576Z,97523.47
2022-09-14T14:45:19.015Z,97532.94
2022-09-14T14:47:47.503Z,97520.88
2022-09-14T14:50:22.699Z,97531.78
2022-09-14T14:52:51.609Z,97517.53
2022-09-14T14:55:21.198Z,97517.00
2022-09-14T14:57:49.021Z,97523.78
2022-09-14T15:00:24.319Z,97517.84
2022-09-14T15:02:51.687Z,97517.84
2022-09-14T15:05:19.782Z,97519.75
2022-09-14T15:07:47.714Z,97525.13
2022-09-14T15:10:16.445Z,97534.78
2022-09-14T15:12:44.194Z,97527.91
2022-09-14T15:15:24.080Z,97530.16
2022-09-14T15:17:51.989Z,97526.41
2022-09-14T15:20:19.951Z,97525.44
2022-09-14T15:22:48.075Z,97514.06
2022-09-14T15:25:16.731Z,97513.75
2022-09-14T15:27:44.018Z,97523.28
2022-09-14T15:30:12.153Z,97516.22
2022-09-14T15:32:40.095Z,97524.53
2022-09-14T15:35:10.314Z,97522.91
2022-09-14T15:37:37.274Z,97513.88
2022-09-14T15:40:05.555Z,97510.75
2022-09-14T15:42:32.520Z,97514.84
2022-09-14T15:44:59.594Z,97517.53
2022-09-14T15:47:26.469Z,97529.41
2022-09-14T15:49:53.539Z,97518.38
2022-09-14T15:52:20.573Z,97510.13
2022-09-14T15:54:48.545Z,97506.66
2022-09-14T15:57:15.454Z,97510.00
2022-09-14T15:59:42.469Z,97506.06
2022-09-14T16:02:11.098Z,97499.50
2022-09-14T16:04:39.293Z,97502.94
2022-09-14T16:07:10.073Z,97492.91
2022-09-14T16:09:39.643Z,97494.94
2022-09-14T16:12:07.942Z,97496.63
2022-09-14T16:14:34.987Z,97505.09
2022-09-14T16:17:02.812Z,97500.44
2022-09-14T16:19:30.060Z,97496.00
2022-09-14T16:21:57.034Z,97508.13
2022-09-14T16:24:25.386Z,97498.47
2022-09-14T16:26:53.334Z,97494.94
2022-09-14T16:29:21.738Z,97510.06
2022-09-14T16:31:49.540Z,97506.56
2022-09-14T16:34:26.008Z,97504.00
2022-09-14T16:36:53.284Z,97503.25
2022-09-14T16:39:23.121Z,97507.22
2022-09-14T16:41:50.358Z,97501.41
2022-09-14T16:44:25.718Z,97514.34
2022-09-14T16:46:54.165Z,97511.53
2022-09-14T16:49:24.967Z,97510.31
2022-09-14T16:51:54.394Z,97500.88
2022-09-14T16:54:23.171Z,97505.09
2022-09-14T16:56:50.761Z,97507.31
2022-09-14T16:59:19.475Z,97511.81
2022-09-14T17:01:51.940Z,97517.69
2022-09-14T17:04:22.185Z,97512.84
2022-09-14T17:06:51.801Z,97513.56
2022-09-14T17:09:25.420Z,97523.91
2022-09-14T17:11:54.144Z,97523.28
2022-09-14T17:14:24.849Z,97521.19
2022-09-14T17:16:52.144Z,97518.38
2022-09-14T17:19:19.165Z,97518.16
2022-09-14T17:21:47.488Z,97527.00
2022-09-14T17:24:15.980Z,97519.16
2022-09-14T17:26:43.338Z,97519.53
2022-09-14T17:29:10.979Z,97523.47
2022-09-14T17:31:40.648Z,97518.28
2022-09-14T17:34:09.737Z,97526.34
2022-09-14T17:36:38.313Z,97533.47
2022-09-14T17:39:11.353Z,97530.72
2022-09-14T17:41:41.279Z,97530.09
2022-09-14T17:44:11.309Z,97525.72
2022-09-14T17:46:46.004Z,97528.28
2022-09-14T17:49:16.374Z,97531.53
2022-09-14T17:51:45.497Z,97525.31
2022-09-14T17:54:12.941Z,97524.72
2022-09-14T17:56:39.930Z,97516.66
2022-09-14T17:59:10.993Z,97525.44
2022-09-14T18:01:38.822Z,97520.72
2022-09-14T18:04:09.972Z,97520.00
2022-09-14T18:06:42.464Z,97512.63
2022-09-14T18:09:17.069Z,97512.13
2022-09-14T18:11:45.008Z,97520.06
2022-09-14T18:14:13.838Z,97519.44
2022-09-14T18:16:41.598Z,97526.34
2022-09-14T18:19:08.945Z,97523.75
2022-09-14T18:21:36.278Z,97529.25
2022-09-14T18:24:03.937Z,97525.41
2022-09-14T18:26:31.068Z,97528.59
2022-09-14T18:28:58.836Z,97523.19
2022-09-14T18:31:26.349Z,97519.38
2022-09-14T18:33:59.219Z,97519.00
2022-09-14T18:36:29.322Z,97516.16
2022-09-14T18:38:58.244Z,97512.13
2022-09-14T18:41:26.202Z,97495.94
2022-09-14T18:43:53.732Z,97495.13
2022-09-14T18:46:25.752Z,97492.94
2022-09-14T18:48:56.897Z,97498.59
2022-09-14T18:51:24.148Z,97489.69
2022-09-14T18:54:00.122Z,97501.19
2022-09-14T18:56:28.109Z,97506.19
2022-09-14T18:58:55.554Z,97503.19
2022-09-14T19:01:22.670Z,97512.63
2022-09-14T19:03:50.095Z,97513.00
2022-09-14T19:06:18.894Z,97517.47
2022-09-14T19:08:46.797Z,97507.75
2022-09-14T19:11:17.961Z,97507.94
2022-09-14T19:13:46.525Z,97512.19
2022-09-14T19:16:19.700Z,97505.53
2022-09-14T19:18:48.408Z,97494.97
2022-09-14T19:21:23.616Z,97503.53
2022-09-14T19:24:00.478Z,97490.16
2022-09-14T19:26:40.031Z,97484.06
2022-09-14T19:29:11.783Z,97485.09
2022-09-14T19:31:38.739Z,97488.59
2022-09-14T19:34:06.038Z,97494.94
2022-09-14T19:36:35.080Z,97506.56
2022-09-14T19:39:04.237Z,97505.75
2022-09-14T19:41:33.175Z,97513.28
2022-09-14T19:44:01.013Z,97513.88
2022-09-14T19:46:29.194Z,97505.00
2022-09-14T19:48:56.349Z,97501.03
2022-09-14T19:51:25.662Z,97509.09
2022-09-14T19:53:54.481Z,97502.78
2022-09-14T19:56:23.055Z,97507.41
2022-09-14T19:58:51.557Z,97499.34
2022-09-14T20:01:20.183Z,97502.75
2022-09-14T20:03:48.711Z,97492.97
2022-09-14T20:06:23.469Z,97491.75
2022-09-14T20:08:53.019Z,97492.47
2022-09-14T20:11:23.915Z,97494.19
2022-09-14T20:13:53.458Z,97495.00
2022-09-14T20:16:25.369Z,97485.84
2022-09-14T20:18:52.886Z,97490.22
2022-09-14T20:21:24.828Z,97478.34
2022-09-14T20:24:16.217Z,97478.00
2022-09-14T20:26:47.943Z,97485.50
2022-09-14T20:29:16.141Z,97480.91
2022-09-14T20:31:43.915Z,97487.81
2022-09-14T20:34:11.342Z,97474.91
2022-09-14T20:36:38.867Z,97493.13
2022-09-14T20:39:06.047Z,97497.94
2022-09-14T20:41:35.116Z,97488.50
2022-09-14T20:44:03.141Z,97481.34
2022-09-14T20:49:23.943Z,97465.25
2022-09-14T20:51:45.920Z,97476.72
2022-09-14T20:51:52.829Z,97464.38
2022-09-14T20:54:20.203Z,97469.69
2022-09-14T20:56:47.416Z,97468.66
2022-09-14T20:59:22.931Z,97460.59
2022-09-14T21:01:51.591Z,97482.63
2022-09-14T21:04:21.776Z,97495.34
2022-09-14T21:06:52.698Z,97494.44
2022-09-14T21:09:22.793Z,97490.47
2022-09-14T21:11:49.881Z,97492.38
2022-09-14T21:14:18.877Z,97492.81
2022-09-14T21:16:47.627Z,97495.03
2022-09-14T21:19:20.748Z,97496.34
2022-09-14T21:21:49.101Z,97491.78
2022-09-14T21:24:17.796Z,97500.16
2022-09-14T21:26:45.974Z,97488.28
2022-09-14T21:29:20.344Z,97482.28
2022-09-14T21:31:48.874Z,97475.16
2022-09-14T21:34:16.614Z,97481.22
2022-09-14T21:36:46.089Z,97480.28
2022-09-14T21:39:21.562Z,97468.91
2022-09-14T21:41:54.483Z,97463.69
2022-09-14T21:44:31.785Z,97456.59
2022-09-14T21:46:59.343Z,97458.88
2022-09-14T21:49:26.301Z,97446.66
2022-09-14T21:51:53.359Z,97450.75
2022-09-14T21:54:22.354Z,97445.31
2022-09-14T21:56:49.549Z,97448.34
2022-09-14T21:59:19.321Z,97447.50
2022-09-14T22:01:47.696Z,97448.63
2022-09-14T22:04:21.290Z,97450.75
2022-09-14T22:06:48.940Z,97453.72
2022-09-14T22:09:18.662Z,97450.09
2022-09-14T22:11:46.162Z,97445.78
2022-09-14T22:14:18.216Z,97437.59
2022-09-14T22:16:45.762Z,97446.22
2022-09-14T22:19:35.297Z,97439.81
2022-09-14T22:22:03.840Z,97441.38
2022-09-14T22:24:37.963Z,97447.22
2022-09-14T22:27:08.107Z,97444.09
2022-09-14T22:29:35.180Z,97443.06
2022-09-14T22:32:02.272Z,97432.28
2022-09-14T22:34:29.347Z,97427.50
2022-09-14T22:36:56.259Z,97422.34
2022-09-14T22:39:23.981Z,97421.81
2022-09-14T22:41:50.884Z,97420.66
2022-09-14T22:44:17.735Z,97413.84
2022-09-14T22:46:44.909Z,97415.81
2022-09-14T22:49:12.317Z,97414.94
2022-09-14T22:51:39.340Z,97417.47
2022-09-14T22:54:07.015Z,97417.13
2022-09-14T22:56:37.472Z,97411.16
2022-09-14T22:59:09.749Z,97406.97
2022-09-14T23:01:39.250Z,97403.53
2022-09-14T23:04:09.175Z,97401.91
2022-09-14T23:06:42.908Z,97405.88
2022-09-14T23:09:12.743Z,97410.06
2022-09-14T23:11:39.915Z,97408.97
2022-09-14T23:14:06.779Z,97401.13
2022-09-14T23:16:33.778Z,97411.53
2022-09-14T23:19:02.904Z,97417.91
2022-09-14T23:21:31.309Z,97409.31
2022-09-14T23:24:03.950Z,97407.63
2022-09-14T23:26:31.638Z,97402.44
2022-09-14T23:29:01.760Z,97413.84
2022-09-14T23:31:30.031Z,97403.47
2022-09-14T23:33:59.058Z,97405.38
2022-09-14T23:36:26.491Z,97403.53
2022-09-14T23:38:53.901Z,97395.63
2022-09-14T23:41:22.917Z,97396.94
2022-09-14T23:43:50.414Z,97395.03
2022-09-14T23:46:18.310Z,97397.72
2022-09-14T23:48:45.744Z,97393.41
2022-09-14T23:51:13.389Z,97386.31
2022-09-14T23:53:40.662Z,97374.94
2022-09-14T23:56:08.455Z,97367.44
2022-09-14T23:58:35.667Z,97365.84
